Mendota, IL

6:06 AM CDT on July 26, 2017 (GMT -0500)
Northbrook | | Change Station
Active Advisory: Flood Warning

Elev 778 ft 41.56 °N, 89.12 °W | Updated 10 seconds ago

Partly Cloudy
Partly Cloudy
63.7 °F
Feels Like 63.7 °F
N
0.0
Wind Variable Wind from SE
Gusts 0.0 mph

Today
High -- | Low -- °F
--% Chance of Precip.
Yesterday
High -- | Low -- °F
Precip. -- in
Pressure 30.08 in
Visibility 10.0 miles
Clouds Clear
Dew Point 56 °F
Humidity 76%
Rainfall 0.00 in
Snow Depth Not available.
5:45 AM 8:19 PM
Waxing Crescent, 12% visible
METAR KRPJ 261055Z AUTO 17004KT 10SM CLR 17/16 A3008 RMK AO2 T01710164
Pressure 30.08 in
Visibility 10.0 miles
Clouds Clear
Dew Point 56 °F
Humidity 76%
Rainfall 0.00 in
Snow Depth Not available.
5:45 AM 8:19 PM
Waxing Crescent, 12% visible
METAR KRPJ 261055Z AUTO 17004KT 10SM CLR 17/16 A3008 RMK AO2 T01710164

Get Your Daily Forecast Email!

Thanks for signing up!

Be on the lookout for a verification email in your inbox.

You'll start receiving severe weather alerts in your inbox..

×

10-Day Weather Forecast

Almanac

Astronomy

Jul. 26, 2017 Rise Set
Actual Time
Civil Twilight
Nautical Twilight
Astronomical Twilight
Moon
Length of Visible Light
Length of Day
Tomorrow will be .
, % of the Moon is Illuminated

Today's Extremes

State Highs State Lows

Community

WunderPhotos

Category 6

Welcome to Category 6. This is the collective home for Weather Underground's featured writeups by Dr. Jeff Masters (right), Bob Henson (left), Chris Burt, and other regular contributors.

Nearby

Air Quality

  Air Quality AQ Index Pollutant
Not available.

Snow Depth

Station Depth Elevation

Earthquake Activity

City Distance Mag. Time & Date
Minimum magnitude displayed is 2.5.

Coastal Water Temperatures

Place Temperature

Stations

Nearby Weather Stations

Station Location Temp. Windchill Dew Point Humidity Wind Precip. Elev Updated Type
                   

Watches & Warnings

Flood Warning
Issued: 9:27 PM CDT Jul. 25, 2017 – National Weather Service

The Flood Warning continues for
the Illinois River at La Salle.
* Until Thursday afternoon.
* At 845 PM Tuesday the stage was 21.9 feet.
* Flood stage is 20.0 feet.
* Minor flooding is occurring and minor flooding is forecast.
* Forecast... the river will continue to fall to below flood stage by
late Thursday morning.
* Impact... at 22.0 feet... Riverside parking lot at Starved Rock State
Park floods.


Lat... Lon 4128 8896 4126 8930 4135 8929 4137 8896